createdAt,value
2022-09-18T00:01:29.528Z,3.00
2022-09-18T00:03:58.250Z,2.30
2022-09-18T00:06:27.708Z,2.88
2022-09-18T00:08:57.059Z,2.33
2022-09-18T00:11:26.842Z,2.47
2022-09-18T00:13:53.877Z,2.58
2022-09-18T00:16:23.183Z,2.40
2022-09-18T00:18:49.920Z,2.65
2022-09-18T00:21:19.329Z,2.65
2022-09-18T00:23:46.845Z,2.35
2022-09-18T00:26:15.376Z,1.92
2022-09-18T00:28:42.113Z,2.35
2022-09-18T00:31:10.302Z,2.47
2022-09-18T00:33:39.198Z,2.40
2022-09-18T00:36:09.331Z,2.28
2022-09-18T00:38:36.251Z,2.55
2022-09-18T00:41:05.641Z,2.22
2022-09-18T00:43:34.782Z,2.28
2022-09-18T00:46:06.976Z,1.83
2022-09-18T00:49:23.866Z,2.25
2022-09-18T00:51:53.706Z,2.05
2022-09-18T00:54:34.199Z,2.20
2022-09-18T00:57:04.707Z,2.33
2022-09-18T00:59:34.356Z,1.90
2022-09-18T01:02:01.779Z,2.35
2022-09-18T01:04:29.462Z,2.20
2022-09-18T01:07:08.941Z,2.28
2022-09-18T01:10:05.893Z,1.80
2022-09-18T01:12:45.537Z,2.25
2022-09-18T01:15:34.889Z,1.85
2022-09-18T01:18:09.939Z,1.80
2022-09-18T01:20:36.449Z,1.80
2022-09-18T01:23:30.135Z,2.00
2022-09-18T01:26:27.317Z,2.17
2022-09-18T01:28:57.086Z,1.92
2022-09-18T01:31:31.246Z,2.00
2022-09-18T01:34:24.052Z,1.90
2022-09-18T01:36:58.053Z,1.83
2022-09-18T01:39:36.874Z,2.03
2022-09-18T01:42:06.931Z,1.73
2022-09-18T01:44:35.177Z,1.63
2022-09-18T01:47:06.572Z,2.30
2022-09-18T01:49:39.344Z,1.90
2022-09-18T01:52:33.826Z,1.80
2022-09-18T01:55:03.726Z,1.85
2022-09-18T01:57:41.966Z,1.80
2022-09-18T02:00:12.309Z,2.13
2022-09-18T02:02:54.038Z,1.60
2022-09-18T02:05:28.710Z,2.00
2022-09-18T02:08:15.349Z,2.10
2022-09-18T02:11:06.610Z,1.90
2022-09-18T02:13:42.153Z,2.03
2022-09-18T02:16:16.207Z,2.00
2022-09-18T02:18:49.351Z,2.25
2022-09-18T02:21:20.235Z,1.90
2022-09-18T02:23:47.231Z,2.00
2022-09-18T02:26:15.621Z,1.75
2022-09-18T02:28:44.426Z,1.85
2022-09-18T02:31:12.934Z,1.88
2022-09-18T02:33:39.813Z,1.98
2022-09-18T02:36:09.479Z,1.65
2022-09-18T02:39:01.467Z,1.60
2022-09-18T02:41:45.433Z,1.83
2022-09-18T02:44:15.029Z,1.70
2022-09-18T02:46:57.414Z,2.05
2022-09-18T02:49:55.086Z,1.40
2022-09-18T02:52:28.702Z,1.80
2022-09-18T02:55:10.322Z,1.55
2022-09-18T02:57:46.853Z,1.88
2022-09-18T03:00:18.403Z,1.80
2022-09-18T03:02:46.185Z,1.52
2022-09-18T03:05:13.439Z,1.70
2022-09-18T03:07:40.169Z,1.58
2022-09-18T03:10:07.023Z,1.38
2022-09-18T03:12:33.610Z,1.58
2022-09-18T03:15:00.165Z,1.70
2022-09-18T03:17:26.719Z,1.45
2022-09-18T03:19:53.977Z,1.80
2022-09-18T03:22:20.529Z,1.58
2022-09-18T03:24:47.107Z,1.60
2022-09-18T03:27:13.694Z,1.70
2022-09-18T03:29:40.235Z,1.83
2022-09-18T03:32:06.803Z,1.50
2022-09-18T03:34:33.411Z,1.60
2022-09-18T03:36:59.954Z,1.55
2022-09-18T03:39:26.532Z,1.60
2022-09-18T03:41:53.095Z,1.60
2022-09-18T03:44:19.627Z,1.48
2022-09-18T03:46:46.378Z,1.40
2022-09-18T03:49:13.060Z,1.42
2022-09-18T03:51:39.711Z,1.48
2022-09-18T03:54:06.287Z,1.35
2022-09-18T03:56:33.253Z,1.45
2022-09-18T03:58:59.841Z,1.50
2022-09-18T04:01:26.449Z,1.63
2022-09-18T04:03:53.030Z,1.40
2022-09-18T04:06:19.663Z,1.40
2022-09-18T04:08:46.237Z,1.45
2022-09-18T04:11:12.804Z,1.30
2022-09-18T04:13:39.608Z,1.63
2022-09-18T04:16:06.388Z,1.33
2022-09-18T04:18:33.643Z,1.30
2022-09-18T04:21:00.360Z,1.42
2022-09-18T04:23:26.927Z,1.23
2022-09-18T04:25:53.586Z,1.38
2022-09-18T04:28:20.275Z,1.38
2022-09-18T04:30:47.509Z,1.40
2022-09-18T04:33:15.966Z,1.10
2022-09-18T04:35:42.826Z,1.50
2022-09-18T04:38:09.495Z,1.10
2022-09-18T04:40:36.144Z,1.40
2022-09-18T04:43:02.755Z,1.40
2022-09-18T04:45:29.324Z,1.40
2022-09-18T04:47:55.877Z,1.50
2022-09-18T04:50:22.453Z,1.27
2022-09-18T04:52:49.070Z,1.65
2022-09-18T04:55:15.751Z,1.48
2022-09-18T04:57:42.324Z,1.35
2022-09-18T05:00:09.725Z,1.30
2022-09-18T05:02:36.405Z,1.05
2022-09-18T05:05:03.009Z,1.60
2022-09-18T05:07:31.345Z,1.40
2022-09-18T05:09:57.898Z,1.20
2022-09-18T05:12:24.443Z,1.20
2022-09-18T05:14:50.989Z,1.20
2022-09-18T05:17:17.838Z,1.05
2022-09-18T05:19:44.418Z,0.90
2022-09-18T05:22:10.958Z,1.30
2022-09-18T05:24:37.519Z,1.17
2022-09-18T05:27:04.315Z,1.05
2022-09-18T05:29:30.894Z,1.10
2022-09-18T05:31:57.485Z,1.50
2022-09-18T05:34:24.131Z,1.25
2022-09-18T05:36:50.690Z,1.20
2022-09-18T05:39:17.890Z,1.42
2022-09-18T05:41:44.651Z,1.40
2022-09-18T05:44:11.174Z,0.98
2022-09-18T05:46:37.807Z,1.05
2022-09-18T05:49:06.294Z,1.10
2022-09-18T05:51:32.995Z,1.48
2022-09-18T05:53:59.747Z,1.20
2022-09-18T05:56:27.918Z,1.00
2022-09-18T05:58:54.586Z,1.00
2022-09-18T06:01:21.245Z,1.40
2022-09-18T06:03:50.137Z,0.90
2022-09-18T06:06:16.830Z,1.15
2022-09-18T06:08:43.521Z,1.30
2022-09-18T06:11:10.114Z,1.20
2022-09-18T06:13:36.742Z,1.02
2022-09-18T06:16:03.442Z,1.00
2022-09-18T06:18:30.097Z,1.10
2022-09-18T06:20:58.602Z,1.17
2022-09-18T06:23:27.006Z,1.08
2022-09-18T06:26:01.124Z,1.00
2022-09-18T06:28:28.493Z,0.98
2022-09-18T06:30:55.194Z,1.10
2022-09-18T06:33:21.753Z,0.70
2022-09-18T06:35:49.121Z,1.00
2022-09-18T06:38:16.378Z,1.00
2022-09-18T06:40:54.386Z,1.00
2022-09-18T06:43:21.321Z,0.82
2022-09-18T06:45:55.507Z,0.80
2022-09-18T06:48:23.625Z,1.10
2022-09-18T06:50:54.869Z,1.08
2022-09-18T06:53:22.073Z,0.98
2022-09-18T06:55:49.412Z,1.08
2022-09-18T06:58:17.480Z,0.88
2022-09-18T07:00:45.459Z,0.80
2022-09-18T07:03:12.480Z,0.90
2022-09-18T07:05:42.304Z,1.00
2022-09-18T07:08:09.750Z,1.00
2022-09-18T07:10:36.667Z,1.15
2022-09-18T07:13:03.468Z,1.10
2022-09-18T07:15:30.230Z,1.08
2022-09-18T07:18:01.812Z,0.80
2022-09-18T07:20:29.614Z,0.98
2022-09-18T07:23:01.142Z,1.10
2022-09-18T07:25:30.842Z,0.88
2022-09-18T07:28:10.408Z,0.85
2022-09-18T07:30:38.379Z,1.00
2022-09-18T07:33:07.277Z,1.02
2022-09-18T07:35:34.393Z,0.90
2022-09-18T07:38:02.357Z,1.27
2022-09-18T07:40:29.645Z,1.02
2022-09-18T07:43:05.095Z,0.90
2022-09-18T07:45:31.792Z,0.90
2022-09-18T07:48:02.055Z,0.82
2022-09-18T07:50:28.678Z,1.00
2022-09-18T07:52:57.915Z,0.90
2022-09-18T07:55:26.395Z,0.88
2022-09-18T07:58:00.978Z,0.68
2022-09-18T08:00:30.063Z,1.15
2022-09-18T08:03:06.827Z,0.70
2022-09-18T08:05:33.533Z,0.82
2022-09-18T08:08:07.979Z,0.95
2022-09-18T08:10:36.134Z,0.77
2022-09-18T08:13:03.677Z,0.77
2022-09-18T08:15:31.596Z,0.88
2022-09-18T08:17:58.594Z,0.80
2022-09-18T08:20:25.213Z,0.68
2022-09-18T08:22:51.941Z,0.80
2022-09-18T08:25:18.945Z,0.95
2022-09-18T08:27:45.535Z,0.75
2022-09-18T08:30:14.220Z,0.80
2022-09-18T08:32:41.615Z,0.98
2022-09-18T08:35:09.171Z,0.80
2022-09-18T08:37:35.795Z,0.75
2022-09-18T08:40:04.136Z,0.90
2022-09-18T08:42:45.555Z,0.63
2022-09-18T08:45:41.980Z,0.90
2022-09-18T08:48:18.224Z,0.80
2022-09-18T08:50:54.490Z,1.30
2022-09-18T08:53:26.095Z,0.80
2022-09-18T08:55:54.174Z,0.98
2022-09-18T08:58:28.718Z,1.00
2022-09-18T09:01:01.436Z,1.10
2022-09-18T09:04:07.228Z,0.93
2022-09-18T09:06:42.979Z,1.10
2022-09-18T09:09:42.748Z,0.90
2022-09-18T09:12:34.489Z,0.88
2022-09-18T09:15:20.812Z,0.75
2022-09-18T09:18:13.482Z,1.00
2022-09-18T09:20:54.826Z,0.80
2022-09-18T09:23:24.203Z,0.77
2022-09-18T09:26:05.863Z,1.05
2022-09-18T09:28:47.379Z,0.90
2022-09-18T09:31:17.222Z,0.98
2022-09-18T09:34:00.222Z,0.90
2022-09-18T09:36:29.987Z,0.70
2022-09-18T09:39:25.988Z,0.77
2022-09-18T09:42:10.786Z,0.85
2022-09-18T09:44:39.704Z,1.00
2022-09-18T09:47:20.261Z,0.82
2022-09-18T09:49:59.822Z,0.90
2022-09-18T09:52:28.214Z,0.88
2022-09-18T09:55:13.851Z,0.95
2022-09-18T09:58:04.194Z,0.88
2022-09-18T10:01:02.362Z,0.77
2022-09-18T10:03:53.592Z,0.70
2022-09-18T10:06:35.510Z,1.20
2022-09-18T10:09:13.486Z,0.82
2022-09-18T10:11:43.216Z,0.70
2022-09-18T10:14:18.311Z,0.73
2022-09-18T10:16:51.164Z,0.50
2022-09-18T10:19:20.794Z,0.80
2022-09-18T10:21:50.895Z,0.85
2022-09-18T10:24:29.893Z,0.93
2022-09-18T10:27:09.327Z,1.20
2022-09-18T10:29:36.286Z,1.17
2022-09-18T10:32:04.374Z,1.17
2022-09-18T10:34:33.663Z,1.50
2022-09-18T10:37:01.019Z,1.23
2022-09-18T10:39:31.989Z,0.90
2022-09-18T10:42:00.333Z,1.00
2022-09-18T10:44:30.368Z,0.80
2022-09-18T10:47:09.833Z,1.23
2022-09-18T10:49:52.286Z,1.40
2022-09-18T10:52:28.427Z,1.25
2022-09-18T10:54:59.375Z,0.90
2022-09-18T10:57:29.593Z,0.68
2022-09-18T10:59:56.304Z,1.00
2022-09-18T11:02:26.981Z,1.00
2022-09-18T11:04:53.993Z,1.10
2022-09-18T11:07:25.806Z,1.00
2022-09-18T11:12:29.354Z,1.00
2022-09-18T11:15:04.286Z,1.10
2022-09-18T11:17:34.635Z,0.82
2022-09-18T11:20:03.585Z,0.98
2022-09-18T11:22:50.722Z,1.10
2022-09-18T11:25:19.237Z,0.90
2022-09-18T11:27:49.316Z,0.60
2022-09-18T11:30:30.772Z,0.82
2022-09-18T11:33:14.859Z,0.88
2022-09-18T11:35:46.774Z,1.10
2022-09-18T11:38:19.418Z,0.80
2022-09-18T11:40:51.358Z,0.90
2022-09-18T11:43:25.666Z,0.93
2022-09-18T11:46:03.909Z,0.70
2022-09-18T11:48:36.213Z,0.80
2022-09-18T11:51:09.799Z,1.08
2022-09-18T11:53:42.582Z,0.70
2022-09-18T11:56:19.448Z,0.63
2022-09-18T11:59:14.566Z,0.80
2022-09-18T12:01:53.854Z,0.68
2022-09-18T12:04:49.147Z,0.70
2022-09-18T12:07:38.504Z,0.52
2022-09-18T12:10:15.782Z,0.80
2022-09-18T12:12:59.506Z,0.70
2022-09-18T12:15:32.231Z,1.00
2022-09-18T12:18:02.838Z,0.93
2022-09-18T12:20:35.982Z,1.05
2022-09-18T12:23:02.845Z,0.80
2022-09-18T12:25:38.572Z,0.68
2022-09-18T12:28:31.076Z,1.23
2022-09-18T12:31:10.827Z,1.00
2022-09-18T12:33:56.369Z,0.90
2022-09-18T12:36:47.912Z,0.60
2022-09-18T12:39:53.729Z,0.90
2022-09-18T12:42:49.650Z,0.70
2022-09-18T12:45:47.854Z,0.60
2022-09-18T12:48:49.774Z,0.70
2022-09-18T12:51:49.165Z,0.70
2022-09-18T12:54:44.139Z,0.80
2022-09-18T12:57:29.214Z,0.77
2022-09-18T12:59:59.534Z,0.68
2022-09-18T13:02:38.996Z,0.70
2022-09-18T13:05:17.711Z,0.70
2022-09-18T13:07:50.450Z,0.90
2022-09-18T13:10:28.898Z,0.73
2022-09-18T13:13:04.171Z,0.90
2022-09-18T13:15:40.330Z,0.60
2022-09-18T13:18:24.197Z,0.60
2022-09-18T13:20:51.812Z,0.90
2022-09-18T13:23:23.617Z,0.70
2022-09-18T13:25:51.633Z,0.73
2022-09-18T13:28:21.479Z,0.70
2022-09-18T13:31:23.555Z,0.50
2022-09-18T13:33:53.841Z,0.70
2022-09-18T13:36:40.934Z,0.60
2022-09-18T13:39:23.370Z,0.50
2022-09-18T13:41:53.642Z,0.52
2022-09-18T13:44:35.913Z,0.77
2022-09-18T13:47:11.843Z,0.55
2022-09-18T13:50:00.035Z,0.50
2022-09-18T13:52:33.829Z,0.60
2022-09-18T13:55:13.572Z,0.50
2022-09-18T13:57:41.326Z,0.60
2022-09-18T14:00:20.324Z,0.60
2022-09-18T14:02:51.245Z,0.70
2022-09-18T14:05:30.365Z,0.63
2022-09-18T14:08:18.742Z,0.60
2022-09-18T14:11:11.378Z,0.80
2022-09-18T14:13:47.401Z,1.00
2022-09-18T14:16:28.686Z,1.02
2022-09-18T14:19:00.126Z,0.80
2022-09-18T14:21:31.782Z,0.90
2022-09-18T14:24:36.416Z,0.93
2022-09-18T14:27:21.654Z,0.70
2022-09-18T14:29:53.865Z,0.65
2022-09-18T14:32:20.504Z,0.80
2022-09-18T14:34:47.154Z,0.75
2022-09-18T14:37:31.089Z,0.98
2022-09-18T14:39:58.977Z,0.98
2022-09-18T14:42:38.183Z,0.95
2022-09-18T14:45:24.210Z,0.80
2022-09-18T14:47:51.222Z,1.20
2022-09-18T14:50:37.433Z,1.50
2022-09-18T14:53:23.520Z,1.15
2022-09-18T14:56:19.061Z,1.20
2022-09-18T14:58:50.297Z,1.00
2022-09-18T15:01:29.245Z,0.80
2022-09-18T15:03:59.081Z,1.20
2022-09-18T15:06:40.240Z,1.05
2022-09-18T15:09:10.650Z,0.90
2022-09-18T15:11:58.770Z,0.80
2022-09-18T15:14:39.429Z,0.98
2022-09-18T15:17:25.918Z,0.80
2022-09-18T15:20:08.557Z,1.30
2022-09-18T15:22:35.236Z,1.17
2022-09-18T15:25:02.150Z,1.00
2022-09-18T15:27:29.972Z,0.75
2022-09-18T15:30:07.082Z,0.82
2022-09-18T15:32:44.695Z,1.05
2022-09-18T15:35:24.076Z,0.93
2022-09-18T15:38:06.886Z,1.00
2022-09-18T15:40:38.232Z,1.00
2022-09-18T15:43:22.250Z,1.00
2022-09-18T15:46:01.886Z,1.10
2022-09-18T15:48:48.801Z,0.73
2022-09-18T15:51:24.482Z,1.00
2022-09-18T15:54:03.319Z,1.40
2022-09-18T15:56:31.205Z,1.00
2022-09-18T15:58:58.773Z,1.02
2022-09-18T16:01:35.428Z,1.33
2022-09-18T16:04:24.419Z,1.10
2022-09-18T16:07:01.340Z,1.00
2022-09-18T16:09:47.907Z,1.20
2022-09-18T16:12:29.520Z,1.02
2022-09-18T16:15:36.022Z,1.05
2022-09-18T16:18:05.558Z,0.90
2022-09-18T16:20:41.002Z,1.08
2022-09-18T16:23:32.286Z,1.10
2022-09-18T16:26:07.817Z,1.02
2022-09-18T16:28:39.666Z,0.90
2022-09-18T16:31:06.412Z,0.90
2022-09-18T16:33:34.849Z,1.30
2022-09-18T16:36:07.175Z,0.90
2022-09-18T16:38:34.795Z,0.93
2022-09-18T16:41:01.847Z,1.00
2022-09-18T16:43:29.666Z,1.15
2022-09-18T16:45:56.234Z,1.00
2022-09-18T16:48:24.281Z,1.15
2022-09-18T16:50:50.898Z,0.70
2022-09-18T16:53:17.678Z,1.05
2022-09-18T16:55:49.414Z,0.98
2022-09-18T16:58:17.974Z,0.90
2022-09-18T17:00:44.913Z,1.00
2022-09-18T17:03:12.123Z,0.95
2022-09-18T17:05:38.930Z,0.93
2022-09-18T17:08:05.829Z,1.30
2022-09-18T17:10:33.575Z,1.38
2022-09-18T17:13:00.508Z,1.23
2022-09-18T17:15:27.249Z,1.10
2022-09-18T17:17:53.962Z,1.13
2022-09-18T17:20:20.542Z,1.33
2022-09-18T17:22:47.732Z,1.40
2022-09-18T17:25:14.963Z,1.10
2022-09-18T17:27:43.806Z,1.50
2022-09-18T17:30:11.570Z,1.20
2022-09-18T17:32:38.816Z,1.20
2022-09-18T17:35:05.781Z,1.30
2022-09-18T17:37:32.458Z,1.33
2022-09-18T17:40:00.308Z,1.20
2022-09-18T17:42:27.019Z,1.15
2022-09-18T17:44:53.666Z,1.10
2022-09-18T17:47:20.418Z,1.00
2022-09-18T17:49:47.046Z,1.25
2022-09-18T17:52:14.347Z,1.20
2022-09-18T17:54:41.666Z,1.30
2022-09-18T17:57:11.609Z,1.23
2022-09-18T17:59:39.493Z,1.00
2022-09-18T18:02:08.029Z,1.20
2022-09-18T18:04:35.482Z,1.05
2022-09-18T18:07:03.033Z,1.00
2022-09-18T18:09:29.702Z,1.13
2022-09-18T18:11:56.340Z,1.20
2022-09-18T18:14:25.121Z,1.35
2022-09-18T18:16:52.705Z,1.30
2022-09-18T18:19:20.049Z,0.77
2022-09-18T18:21:46.639Z,1.10
2022-09-18T18:24:18.890Z,0.80
2022-09-18T18:26:47.163Z,1.10
2022-09-18T18:29:16.652Z,0.98
2022-09-18T18:31:43.976Z,0.90
2022-09-18T18:34:11.656Z,0.90
2022-09-18T18:36:40.038Z,1.23
2022-09-18T18:39:09.936Z,1.10
2022-09-18T18:41:37.133Z,1.13
2022-09-18T18:44:07.719Z,0.90
2022-09-18T18:46:36.723Z,0.90
2022-09-18T18:49:14.549Z,1.00
2022-09-18T18:51:47.236Z,1.10
2022-09-18T18:54:16.130Z,1.00
2022-09-18T18:56:43.222Z,0.98
2022-09-18T18:59:12.834Z,1.00
2022-09-18T19:01:40.778Z,0.80
2022-09-18T19:04:13.090Z,0.90
2022-09-18T19:06:42.990Z,0.90
2022-09-18T19:09:19.297Z,1.00
2022-09-18T19:11:51.648Z,1.17
2022-09-18T19:14:24.105Z,1.10
2022-09-18T19:16:51.435Z,0.70
2022-09-18T19:19:20.139Z,1.10
2022-09-18T19:21:47.097Z,1.05
2022-09-18T19:24:14.113Z,1.10
2022-09-18T19:26:42.086Z,1.20
2022-09-18T19:29:12.633Z,1.10
2022-09-18T19:31:41.307Z,1.00
2022-09-18T19:34:13.708Z,0.95
2022-09-18T19:36:40.275Z,0.90
2022-09-18T19:39:10.350Z,1.05
2022-09-18T19:41:55.351Z,1.00
2022-09-18T19:44:49.922Z,0.98
2022-09-18T19:47:26.207Z,1.08
2022-09-18T19:49:55.169Z,0.98
2022-09-18T19:52:23.972Z,1.13
2022-09-18T19:54:52.076Z,0.80
2022-09-18T19:57:20.189Z,1.00
2022-09-18T19:59:47.046Z,1.15
2022-09-18T20:02:17.124Z,1.20
2022-09-18T20:04:43.705Z,1.20
2022-09-18T20:07:11.002Z,1.00
2022-09-18T20:09:37.645Z,0.90
2022-09-18T20:12:04.706Z,0.98
2022-09-18T20:14:31.245Z,1.20
2022-09-18T20:16:57.865Z,1.13
2022-09-18T20:19:25.405Z,1.10
2022-09-18T20:21:52.807Z,0.80
2022-09-18T20:24:19.698Z,1.00
2022-09-18T20:26:46.663Z,0.93
2022-09-18T20:29:16.065Z,1.25
2022-09-18T20:31:43.063Z,1.00
2022-09-18T20:34:10.899Z,0.77
2022-09-18T20:36:38.084Z,0.80
2022-09-18T20:39:05.205Z,1.05
2022-09-18T20:41:31.918Z,0.90
2022-09-18T20:44:02.827Z,0.90
2022-09-18T20:46:29.479Z,1.20
2022-09-18T20:48:56.313Z,1.30
2022-09-18T20:51:25.004Z,1.00
2022-09-18T20:53:56.057Z,0.88
2022-09-18T20:56:24.709Z,0.88
2022-09-18T20:58:52.046Z,0.90
2022-09-18T21:01:21.625Z,1.02
2022-09-18T21:03:56.373Z,0.85
2022-09-18T21:06:24.823Z,1.00
2022-09-18T21:08:53.906Z,0.90
2022-09-18T21:11:24.885Z,0.98
2022-09-18T21:13:56.529Z,0.98
2022-09-18T21:16:26.067Z,0.90
2022-09-18T21:18:55.611Z,0.90
2022-09-18T21:21:22.757Z,0.80
2022-09-18T21:24:01.204Z,1.08
2022-09-18T21:26:30.608Z,0.73
2022-09-18T21:29:17.903Z,0.90
2022-09-18T21:31:45.880Z,0.93
2022-09-18T21:34:15.726Z,0.80
2022-09-18T21:36:45.720Z,0.80
2022-09-18T21:39:13.509Z,0.80
2022-09-18T21:41:45.736Z,0.73
2022-09-18T21:44:17.987Z,0.90
2022-09-18T21:46:47.819Z,0.90
2022-09-18T21:49:15.987Z,0.70
2022-09-18T21:51:43.163Z,0.80
2022-09-18T21:54:15.045Z,0.68
2022-09-18T21:56:42.694Z,0.60
2022-09-18T21:59:10.266Z,0.90
2022-09-18T22:01:37.995Z,0.73
2022-09-18T22:04:07.129Z,1.00
2022-09-18T22:06:44.349Z,0.80
2022-09-18T22:09:16.950Z,0.80
2022-09-18T22:11:44.946Z,0.88
2022-09-18T22:14:15.456Z,0.60
2022-09-18T22:16:47.003Z,0.70
2022-09-18T22:19:14.807Z,0.60
2022-09-18T22:21:44.969Z,0.80
2022-09-18T22:24:18.758Z,0.93
2022-09-18T22:26:49.922Z,0.70
2022-09-18T22:29:19.577Z,0.87
2022-09-18T22:31:47.151Z,0.80
2022-09-18T22:34:17.025Z,0.70
2022-09-18T22:36:44.878Z,0.73
2022-09-18T22:39:12.482Z,0.80
2022-09-18T22:41:39.554Z,0.60
2022-09-18T22:44:07.176Z,0.80
2022-09-18T22:46:36.117Z,0.80
2022-09-18T22:49:03.300Z,0.70
2022-09-18T22:51:30.041Z,0.75
2022-09-18T22:53:59.095Z,0.70
2022-09-18T22:56:27.637Z,0.68
2022-09-18T22:58:55.937Z,0.82
2022-09-18T23:01:30.324Z,0.63
2022-09-18T23:03:58.302Z,0.85
2022-09-18T23:06:26.302Z,0.75
2022-09-18T23:08:53.922Z,0.65
2022-09-18T23:11:25.565Z,0.80
2022-09-18T23:13:54.730Z,0.60
2022-09-18T23:16:23.751Z,0.40
2022-09-18T23:18:53.220Z,0.65
2022-09-18T23:21:21.866Z,0.50
2022-09-18T23:23:49.831Z,0.80
2022-09-18T23:26:25.091Z,0.57
2022-09-18T23:28:53.757Z,0.80
2022-09-18T23:31:23.153Z,0.60
2022-09-18T23:34:10.961Z,0.50
2022-09-18T23:36:40.133Z,0.70
2022-09-18T23:39:30.148Z,0.68
2022-09-18T23:41:58.733Z,0.90
2022-09-18T23:44:28.461Z,0.50
2022-09-18T23:46:55.345Z,0.88
2022-09-18T23:49:23.259Z,0.60
2022-09-18T23:51:52.156Z,0.80
2022-09-18T23:54:27.658Z,0.55
2022-09-18T23:56:55.231Z,0.50
2022-09-18T23:59:23.639Z,0.63
